Time;durP1;ratioP1;P1;durP2;ratioP2;P2;SDS_P1;SDS_P2;PMS_P1;PMS_P2;Temp;Humidity;BMP_temperature;BMP_pressure;BME280_temperature;BME280_humidity;BME280_pressure;Samples;Min_cycle;Max_cycle;Signal;HPM_P1;HPM_P2
2023/01/17 00:01:27;;;;;;;1.10;1.10;;;4.00;98.00;;;;;;5055049;28;20462;-67
2023/01/17 00:12:09;;;;;;;1.10;1.00;;;3.60;98.00;;;;;;5055014;28;20972;-66
2023/01/17 00:14:36;;;;;;;1.10;1.00;;;3.40;98.00;;;;;;5054893;28;20485;-66
2023/01/17 00:17:03;;;;;;;1.10;1.10;;;3.30;98.00;;;;;;5054936;28;20454;-66
2023/01/17 01:34:33;;;;;;;1.10;0.90;;;2.70;98.00;;;;;;5053289;28;20570;-66
2023/01/17 01:37:00;;;;;;;1.10;1.00;;;2.70;98.00;;;;;;5052472;28;20462;-66
2023/01/17 01:39:28;;;;;;;1.10;0.90;;;2.70;98.00;;;;;;5053124;28;20846;-66
2023/01/17 01:41:55;;;;;;;1.30;1.30;;;2.70;98.00;;;;;;5053160;28;20827;-66
2023/01/17 01:44:47;;;;;;;2.33;1.00;;;2.80;98.00;;;;;;5053250;28;20454;-66
2023/01/17 01:47:20;;;;;;;1.10;1.00;;;2.70;98.00;;;;;;5049974;28;20515;-66
2023/01/17 01:49:48;;;;;;;1.20;1.17;;;2.80;98.00;;;;;;5053243;28;20462;-66
2023/01/17 01:52:16;;;;;;;1.57;1.30;;;2.90;98.00;;;;;;5053224;28;20545;-66
2023/01/17 01:54:50;;;;;;;1.10;1.00;;;2.90;98.00;;;;;;5052971;28;20489;-66
2023/01/17 01:57:22;;;;;;;1.20;1.10;;;2.90;98.00;;;;;;5052436;28;20462;-66
2023/01/17 01:59:55;;;;;;;1.10;1.00;;;2.80;98.00;;;;;;5052994;28;20464;-66
2023/01/17 02:02:23;;;;;;;1.80;1.33;;;2.90;98.00;;;;;;5052974;28;20454;-66
2023/01/17 02:04:51;;;;;;;1.10;1.00;;;2.90;98.00;;;;;;5052966;28;20485;-66
2023/01/17 02:07:22;;;;;;;1.10;1.00;;;3.00;98.00;;;;;;5053005;28;20442;-66
2023/01/17 02:09:51;;;;;;;1.20;1.10;;;2.90;98.00;;;;;;5052505;28;20454;-66
2023/01/17 02:12:20;;;;;;;2.80;1.57;;;2.90;98.00;;;;;;5052257;28;20462;-66
2023/01/17 02:14:47;;;;;;;1.20;1.00;;;2.90;98.00;;;;;;5052661;28;20488;-66
2023/01/17 02:17:27;;;;;;;1.30;1.00;;;3.00;98.00;;;;;;5052488;28;20483;-66
2023/01/17 02:20:45;;;;;;;1.20;1.00;;;3.10;98.00;;;;;;5034937;28;20457;-66
2023/01/17 02:23:45;;;;;;;1.83;1.17;;;3.10;98.00;;;;;;5036903;28;20466;-66
2023/01/17 02:26:43;;;;;;;1.17;1.07;;;3.10;98.00;;;;;;5034510;28;20447;-66
2023/01/17 02:29:51;;;;;;;1.20;1.20;;;3.20;98.00;;;;;;5035428;28;20459;-66
2023/01/17 02:32:27;;;;;;;1.20;1.10;;;3.20;98.00;;;;;;5052345;28;20455;-66
2023/01/17 02:35:01;;;;;;;2.07;1.43;;;3.30;98.00;;;;;;5052427;28;20481;-66
2023/01/17 02:37:34;;;;;;;1.90;1.50;;;3.20;98.00;;;;;;5052200;28;20454;-66
2023/01/17 02:40:08;;;;;;;1.10;0.90;;;3.20;98.00;;;;;;5052452;28;20470;-66
2023/01/17 02:42:40;;;;;;;1.30;1.00;;;3.20;98.00;;;;;;5052036;28;20471;-66
2023/01/17 02:45:09;;;;;;;1.10;1.00;;;3.30;98.00;;;;;;5052373;28;20948;-66
2023/01/17 02:47:38;;;;;;;1.10;1.00;;;3.20;98.00;;;;;;5051975;28;20948;-66
2023/01/17 02:50:08;;;;;;;1.10;1.00;;;3.30;98.00;;;;;;5052419;28;20470;-66
2023/01/17 02:52:53;;;;;;;1.27;1.10;;;3.40;98.00;;;;;;5051976;28;20461;-66
2023/01/17 02:55:32;;;;;;;2.10;1.10;;;3.60;98.00;;;;;;5035249;28;20482;-66
2023/01/17 02:58:13;;;;;;;1.60;1.30;;;3.60;98.00;;;;;;5052124;28;20457;-66
2023/01/17 03:00:50;;;;;;;1.20;1.00;;;3.50;98.00;;;;;;5051927;28;20454;-66
2023/01/17 03:03:26;;;;;;;1.20;1.10;;;3.60;98.00;;;;;;5052014;28;20459;-67
2023/01/17 03:05:59;;;;;;;1.30;1.00;;;3.60;98.00;;;;;;5052207;28;20485;-66
2023/01/17 03:08:27;;;;;;;1.20;1.00;;;3.50;98.00;;;;;;5051978;28;20516;-66
2023/01/17 03:10:54;;;;;;;1.20;1.10;;;3.40;98.00;;;;;;5051926;28;20458;-66
2023/01/17 03:13:23;;;;;;;1.20;1.00;;;3.40;98.00;;;;;;5051747;28;20843;-66
2023/01/17 03:15:50;;;;;;;2.13;1.10;;;3.50;98.00;;;;;;5051672;28;20958;-66
2023/01/17 03:18:26;;;;;;;1.10;1.00;;;3.60;98.00;;;;;;5052072;28;20454;-66
2023/01/17 03:20:53;;;;;;;1.77;1.20;;;3.50;98.00;;;;;;5052036;28;20462;-66
2023/01/17 03:23:20;;;;;;;1.43;1.10;;;3.50;98.00;;;;;;5051485;28;20962;-66
2023/01/17 03:25:48;;;;;;;1.10;1.00;;;3.60;98.00;;;;;;5051871;28;20477;-66
2023/01/17 03:28:15;;;;;;;1.10;0.90;;;3.60;98.00;;;;;;5017371;28;20461;-66
2023/01/17 03:30:42;;;;;;;1.83;1.37;;;3.60;98.00;;;;;;5051546;28;20512;-66
2023/01/17 03:33:09;;;;;;;1.10;1.00;;;3.60;98.00;;;;;;5051222;28;20458;-66
2023/01/17 03:35:38;;;;;;;1.10;1.10;;;3.60;98.00;;;;;;5051440;28;21000;-66
2023/01/17 03:38:05;;;;;;;1.60;1.17;;;3.60;98.00;;;;;;5051599;28;20513;-66
2023/01/17 03:40:32;;;;;;;1.20;1.07;;;3.60;98.00;;;;;;5033785;28;20461;-66
2023/01/17 03:42:59;;;;;;;1.40;1.20;;;3.60;98.00;;;;;;5051574;28;20462;-66
2023/01/17 03:45:26;;;;;;;1.30;1.10;;;3.60;98.00;;;;;;5051604;28;20489;-66
2023/01/17 03:47:55;;;;;;;1.10;0.97;;;3.60;98.00;;;;;;5051721;28;20636;-66
2023/01/17 03:50:22;;;;;;;1.20;1.03;;;3.60;98.00;;;;;;5033696;28;20547;-66
2023/01/17 03:52:51;;;;;;;1.20;1.10;;;3.70;98.00;;;;;;5051766;28;20880;-66
2023/01/17 03:55:18;;;;;;;1.10;1.00;;;3.80;98.00;;;;;;5051486;28;20487;-66
2023/01/17 03:57:45;;;;;;;1.67;1.30;;;3.70;98.00;;;;;;5051533;28;20458;-66
2023/01/17 04:00:13;;;;;;;1.40;1.20;;;3.60;98.00;;;;;;5052845;28;20459;-66
2023/01/17 04:02:40;;;;;;;1.20;1.17;;;3.60;98.00;;;;;;5055040;28;20525;-66
2023/01/17 04:05:08;;;;;;;1.67;1.13;;;3.60;98.00;;;;;;5055632;28;20466;-66
2023/01/17 04:07:35;;;;;;;1.10;1.00;;;3.60;98.00;;;;;;5055287;28;20885;-66
2023/01/17 04:10:05;;;;;;;4.80;1.20;;;3.60;98.00;;;;;;5055468;28;20454;-66
2023/01/17 04:12:32;;;;;;;1.20;1.10;;;3.60;98.00;;;;;;5054906;28;20461;-66
2023/01/17 04:14:59;;;;;;;1.10;1.00;;;3.60;98.00;;;;;;5054949;28;20492;-66
2023/01/17 04:17:26;;;;;;;1.10;0.97;;;3.50;98.00;;;;;;5054907;28;20831;-66
2023/01/17 04:19:53;;;;;;;1.33;1.20;;;3.60;98.00;;;;;;5054808;28;20451;-66
2023/01/17 04:22:21;;;;;;;1.20;1.00;;;3.70;98.00;;;;;;5054776;28;20456;-66
2023/01/17 04:24:48;;;;;;;1.33;1.20;;;3.70;98.00;;;;;;5053747;28;21192;-66
2023/01/17 04:27:16;;;;;;;1.10;1.00;;;3.80;98.00;;;;;;5054635;28;20504;-66
2023/01/17 04:29:44;;;;;;;2.13;1.20;;;3.90;98.00;;;;;;5054453;28;20481;-66
2023/01/17 04:32:11;;;;;;;1.10;1.00;;;3.70;98.00;;;;;;5054582;28;20810;-66
2023/01/17 04:34:38;;;;;;;1.10;1.00;;;3.50;98.00;;;;;;5054170;28;20481;-66
2023/01/17 04:37:05;;;;;;;1.57;1.40;;;3.40;98.00;;;;;;5036570;28;20462;-66
2023/01/17 04:39:32;;;;;;;1.87;1.77;;;3.10;98.00;;;;;;5054327;28;20835;-66
2023/01/17 04:41:59;;;;;;;1.10;1.00;;;3.00;98.00;;;;;;5054508;28;20466;-66
2023/01/17 04:44:30;;;;;;;1.30;1.10;;;3.00;98.00;;;;;;5054215;28;20464;-66
2023/01/17 04:46:57;;;;;;;1.13;1.10;;;2.80;98.00;;;;;;5037045;28;20454;-66
2023/01/17 04:49:24;;;;;;;1.10;1.00;;;2.80;98.00;;;;;;5054182;28;20450;-66
2023/01/17 04:51:51;;;;;;;1.30;1.17;;;2.80;98.00;;;;;;5054321;28;20461;-66
2023/01/17 04:54:18;;;;;;;1.30;1.20;;;2.90;98.00;;;;;;5054266;28;20869;-66
2023/01/17 04:56:45;;;;;;;1.20;1.20;;;2.90;98.00;;;;;;5054284;28;20450;-66
2023/01/17 04:59:12;;;;;;;1.20;1.10;;;3.00;98.00;;;;;;5054148;28;20454;-66
2023/01/17 05:01:41;;;;;;;1.27;1.20;;;3.00;98.00;;;;;;5054045;28;20465;-66
2023/01/17 05:04:08;;;;;;;1.10;1.00;;;2.90;98.00;;;;;;5053472;28;20458;-66
2023/01/17 05:06:35;;;;;;;1.83;1.17;;;2.90;98.00;;;;;;5054066;28;20449;-66
2023/01/17 05:09:08;;;;;;;1.20;1.10;;;2.90;98.00;;;;;;5054195;28;20527;-66
2023/01/17 05:11:35;;;;;;;1.70;1.23;;;3.00;98.00;;;;;;5034901;28;20459;-66
2023/01/17 05:14:03;;;;;;;1.20;1.03;;;3.00;98.00;;;;;;5053848;28;20481;-66
2023/01/17 05:16:30;;;;;;;1.43;1.20;;;2.80;98.00;;;;;;5053586;28;20506;-66
2023/01/17 05:18:59;;;;;;;1.60;1.10;;;2.70;98.00;;;;;;5053646;28;20956;-66
2023/01/17 05:21:26;;;;;;;1.27;1.20;;;2.70;98.00;;;;;;5053397;28;20460;-66
2023/01/17 05:23:53;;;;;;;1.40;1.23;;;2.50;98.00;;;;;;5053422;28;20461;-66
2023/01/17 05:26:20;;;;;;;1.67;1.50;;;2.50;98.00;;;;;;5053560;28;20454;-66
2023/01/17 05:28:47;;;;;;;1.13;1.07;;;2.50;98.00;;;;;;5053302;28;20480;-66
2023/01/17 05:31:14;;;;;;;2.03;1.27;;;2.40;98.00;;;;;;5053390;28;20465;-66
2023/01/17 05:33:42;;;;;;;1.93;1.07;;;2.30;98.00;;;;;;5052661;28;20453;-66
2023/01/17 05:36:10;;;;;;;1.90;1.30;;;2.30;98.00;;;;;;5053359;28;20484;-66
2023/01/17 05:38:38;;;;;;;1.10;1.00;;;2.40;98.00;;;;;;5053049;28;20465;-66
2023/01/17 05:41:05;;;;;;;1.40;1.20;;;2.50;98.00;;;;;;5035554;28;20471;-66
2023/01/17 05:43:32;;;;;;;1.17;1.03;;;2.50;98.00;;;;;;5053229;28;20943;-66
2023/01/17 05:45:59;;;;;;;1.87;1.43;;;2.60;98.00;;;;;;5053228;28;20463;-66
2023/01/17 05:48:26;;;;;;;1.10;1.07;;;2.60;98.00;;;;;;5052775;28;20951;-66
2023/01/17 05:50:53;;;;;;;1.10;1.03;;;2.70;98.00;;;;;;5053193;28;20458;-66
2023/01/17 05:53:23;;;;;;;1.20;1.13;;;2.70;98.00;;;;;;5053095;28;20473;-66
2023/01/17 05:55:50;;;;;;;1.27;1.10;;;2.70;98.00;;;;;;5053047;28;20485;-66
2023/01/17 05:58:19;;;;;;;1.20;1.00;;;2.60;98.00;;;;;;5053024;28;20473;-66
2023/01/17 06:00:47;;;;;;;2.60;1.20;;;2.50;98.00;;;;;;5053222;28;20573;-66
2023/01/17 06:03:15;;;;;;;1.47;1.10;;;2.40;98.00;;;;;;5053073;28;20478;-66
2023/01/17 06:05:43;;;;;;;1.57;1.53;;;2.30;98.00;;;;;;5053004;28;20462;-66
2023/01/17 06:08:10;;;;;;;1.10;1.00;;;2.30;98.00;;;;;;5053007;28;20453;-66
2023/01/17 06:10:40;;;;;;;1.30;1.10;;;2.40;98.00;;;;;;5052823;28;20451;-66
2023/01/17 06:13:09;;;;;;;1.53;1.10;;;2.30;98.00;;;;;;5052855;28;20462;-66
2023/01/17 06:15:37;;;;;;;1.40;1.07;;;2.10;98.00;;;;;;5052367;28;20477;-66
2023/01/17 06:18:06;;;;;;;2.07;1.17;;;2.00;98.00;;;;;;5034832;28;20979;-66
2023/01/17 06:20:33;;;;;;;1.20;1.00;;;1.90;98.00;;;;;;5052278;28;20466;-66
2023/01/17 06:23:01;;;;;;;2.20;1.30;;;1.90;98.00;;;;;;5052063;28;20457;-66
2023/01/17 06:25:28;;;;;;;1.10;1.10;;;1.90;98.00;;;;;;5034891;28;20485;-66
2023/01/17 06:27:56;;;;;;;1.10;1.10;;;1.90;98.00;;;;;;5052314;28;20873;-66
2023/01/17 06:30:23;;;;;;;1.10;1.00;;;1.90;98.00;;;;;;5052337;28;20461;-66
2023/01/17 06:32:54;;;;;;;1.50;1.50;;;2.00;98.00;;;;;;5052143;28;20453;-66
2023/01/17 06:35:21;;;;;;;1.30;1.10;;;2.10;98.00;;;;;;5052243;28;20488;-66
2023/01/17 06:37:54;;;;;;;1.50;1.10;;;2.00;98.00;;;;;;5051906;28;20458;-66
2023/01/17 06:40:21;;;;;;;1.10;1.10;;;2.00;98.00;;;;;;5052323;28;20454;-66
2023/01/17 06:42:48;;;;;;;1.13;1.03;;;1.90;98.00;;;;;;5051927;28;20453;-66
2023/01/17 06:45:18;;;;;;;1.30;1.20;;;1.70;98.00;;;;;;5052247;28;20458;-66
2023/01/17 06:47:47;;;;;;;1.10;1.00;;;1.80;98.00;;;;;;5034488;28;21074;-66
2023/01/17 06:50:15;;;;;;;1.40;1.07;;;1.80;98.00;;;;;;5052191;28;20521;-66
2023/01/17 06:52:43;;;;;;;1.10;1.00;;;1.70;98.00;;;;;;5052076;28;20984;-66
2023/01/17 06:55:11;;;;;;;2.03;1.40;;;1.40;98.00;;;;;;5052032;28;20482;-66
2023/01/17 06:57:38;;;;;;;1.67;1.10;;;1.40;98.00;;;;;;5052107;28;20482;-66
2023/01/17 07:00:06;;;;;;;1.67;1.27;;;1.40;98.00;;;;;;5051902;28;20461;-66
2023/01/17 07:02:35;;;;;;;1.10;1.10;;;1.40;98.00;;;;;;5052070;28;20470;-66
2023/01/17 07:05:02;;;;;;;1.97;1.30;;;1.50;98.00;;;;;;5052051;28;20459;-65
2023/01/17 07:07:30;;;;;;;1.10;1.00;;;1.60;98.00;;;;;;5052070;28;20457;-66
2023/01/17 07:09:57;;;;;;;1.80;1.20;;;1.70;98.00;;;;;;5051391;28;20454;-66
2023/01/17 07:12:24;;;;;;;1.33;1.27;;;1.80;98.00;;;;;;5051461;28;20970;-66
2023/01/17 07:14:51;;;;;;;1.60;1.30;;;1.80;98.00;;;;;;5050954;28;20819;-67
2023/01/17 07:17:18;;;;;;;2.40;1.60;;;1.70;98.00;;;;;;5051697;28;20452;-66
2023/01/17 07:19:47;;;;;;;3.37;1.60;;;1.60;98.00;;;;;;5051496;28;20469;-65
2023/01/17 07:22:15;;;;;;;2.23;1.67;;;1.40;98.00;;;;;;5051603;28;20454;-66
2023/01/17 07:24:42;;;;;;;1.10;1.10;;;1.30;98.00;;;;;;5051441;28;20849;-67
2023/01/17 07:27:09;;;;;;;1.20;1.13;;;1.40;98.00;;;;;;5051597;28;20458;-67
2023/01/17 07:29:36;;;;;;;1.30;1.20;;;1.40;98.00;;;;;;5051472;28;20512;-66
2023/01/17 07:32:03;;;;;;;1.30;1.30;;;1.40;98.00;;;;;;5051429;28;20461;-67
2023/01/17 07:34:31;;;;;;;1.10;1.07;;;1.50;98.00;;;;;;5034002;28;20472;-67
2023/01/17 07:37:00;;;;;;;3.10;1.97;;;1.60;98.00;;;;;;5053634;28;20497;-67
2023/01/17 07:39:27;;;;;;;2.33;1.40;;;1.60;98.00;;;;;;5055394;28;20489;-67
2023/01/17 07:41:55;;;;;;;7.40;1.73;;;1.50;98.00;;;;;;5055405;28;20454;-67
2023/01/17 07:44:22;;;;;;;1.20;1.20;;;1.50;98.00;;;;;;5055351;28;20461;-67
2023/01/17 07:46:49;;;;;;;2.70;1.30;;;1.50;98.00;;;;;;5055625;28;20541;-67
2023/01/17 07:49:16;;;;;;;2.03;1.50;;;1.40;98.00;;;;;;5054982;28;20807;-67
2023/01/17 07:51:44;;;;;;;1.10;1.00;;;1.40;98.00;;;;;;5037752;28;20462;-67
2023/01/17 07:54:13;;;;;;;1.10;1.03;;;1.30;98.00;;;;;;5037674;28;20476;-66
2023/01/17 07:56:44;;;;;;;1.23;1.20;;;1.30;98.00;;;;;;5055435;28;20485;-67
2023/01/17 07:59:11;;;;;;;1.47;1.20;;;1.30;98.00;;;;;;5055463;28;20930;-66
2023/01/17 08:01:38;;;;;;;1.30;1.27;;;1.10;98.00;;;;;;5055348;28;20530;-67
2023/01/17 08:04:05;;;;;;;5.60;2.70;;;1.20;98.00;;;;;;5055222;28;20839;-67
2023/01/17 08:06:32;;;;;;;2.00;1.77;;;1.10;98.00;;;;;;5054964;28;20465;-67
2023/01/17 08:08:59;;;;;;;2.50;1.53;;;1.10;98.00;;;;;;5055282;28;20469;-66
2023/01/17 08:11:28;;;;;;;4.93;2.27;;;1.20;98.00;;;;;;5055037;28;20453;-67
2023/01/17 08:13:58;;;;;;;2.03;1.70;;;1.40;98.00;;;;;;5054835;28;20474;-67
2023/01/17 08:16:25;;;;;;;3.27;1.70;;;1.40;98.00;;;;;;5054849;28;20920;-66
2023/01/17 08:18:52;;;;;;;2.80;1.37;;;1.50;98.00;;;;;;5054568;28;20507;-67
2023/01/17 08:21:19;;;;;;;1.37;1.20;;;1.60;98.00;;;;;;5054750;28;20454;-66
2023/01/17 08:23:48;;;;;;;1.20;1.20;;;1.60;98.00;;;;;;5054665;28;20463;-68
2023/01/17 08:26:20;;;;;;;1.40;1.20;;;1.60;98.00;;;;;;5054667;28;20568;-66
2023/01/17 08:28:49;;;;;;;1.30;1.13;;;1.50;98.00;;;;;;5054535;28;20464;-67
2023/01/17 08:31:18;;;;;;;1.60;1.30;;;1.50;98.00;;;;;;5054533;28;20467;-66
2023/01/17 08:33:53;;;;;;;1.40;1.30;;;1.70;98.00;;;;;;5054433;28;20775;-67
2023/01/17 08:36:20;;;;;;;1.77;1.47;;;1.80;98.00;;;;;;5054413;28;20481;-67
2023/01/17 08:38:51;;;;;;;1.60;1.37;;;1.90;98.00;;;;;;5054357;28;20465;-67
2023/01/17 08:41:19;;;;;;;2.13;1.47;;;1.90;98.00;;;;;;5054387;28;20457;-66
2023/01/17 08:43:48;;;;;;;1.50;1.30;;;2.00;98.00;;;;;;5054105;28;20459;-66
2023/01/17 08:46:16;;;;;;;2.37;1.83;;;2.10;98.00;;;;;;5053938;28;20470;-66
2023/01/17 08:48:43;;;;;;;4.73;1.90;;;2.10;98.00;;;;;;5054291;28;20458;-66
2023/01/17 08:51:10;;;;;;;3.00;1.63;;;2.00;98.00;;;;;;5035646;28;20466;-68
2023/01/17 08:53:37;;;;;;;2.03;1.80;;;2.00;98.00;;;;;;5035071;28;20470;-67
2023/01/17 08:56:06;;;;;;;2.60;1.60;;;2.10;98.00;;;;;;5053931;28;20474;-67
2023/01/17 08:58:35;;;;;;;1.57;1.57;;;2.20;98.00;;;;;;5053908;28;20566;-67
2023/01/17 09:01:05;;;;;;;1.63;1.30;;;2.40;98.00;;;;;;5054117;28;20874;-67
2023/01/17 09:03:33;;;;;;;1.70;1.60;;;2.50;98.00;;;;;;5053968;28;20533;-67
2023/01/17 09:06:02;;;;;;;1.40;1.37;;;2.60;98.00;;;;;;5053617;28;20537;-67
2023/01/17 09:08:29;;;;;;;4.07;2.17;;;2.60;98.00;;;;;;5053101;28;20459;-68
2023/01/17 09:10:56;;;;;;;1.70;1.53;;;2.70;98.00;;;;;;5053116;28;20458;-67
2023/01/17 09:13:23;;;;;;;1.80;1.50;;;2.70;98.00;;;;;;5053230;28;20463;-68
2023/01/17 09:15:50;;;;;;;1.50;1.40;;;2.80;98.00;;;;;;5053236;28;20486;-67
2023/01/17 09:18:21;;;;;;;2.70;1.50;;;2.90;98.00;;;;;;5053420;28;20466;-66
2023/01/17 09:20:48;;;;;;;1.70;1.60;;;3.00;98.00;;;;;;5053358;28;20469;-67
2023/01/17 09:23:15;;;;;;;4.13;2.00;;;3.10;98.00;;;;;;5053506;28;20459;-67
2023/01/17 09:25:43;;;;;;;2.57;1.93;;;3.20;98.00;;;;;;5053261;28;20468;-67
2023/01/17 09:28:10;;;;;;;1.80;1.70;;;3.20;98.00;;;;;;5053338;28;20935;-67
2023/01/17 09:30:37;;;;;;;3.00;2.07;;;3.30;98.00;;;;;;5053238;28;20456;-67
2023/01/17 09:33:04;;;;;;;3.80;2.30;;;3.20;98.00;;;;;;5053035;28;20517;-66
2023/01/17 09:35:36;;;;;;;8.13;1.93;;;3.20;98.00;;;;;;5035588;28;20452;-67
2023/01/17 09:38:03;;;;;;;3.67;2.30;;;3.20;98.00;;;;;;5053178;28;20468;-67
2023/01/17 09:40:31;;;;;;;1.70;1.63;;;3.10;98.00;;;;;;5052890;28;20865;-67
2023/01/17 09:43:02;;;;;;;3.90;2.90;;;3.00;98.00;;;;;;5052946;28;20846;-67
2023/01/17 09:45:32;;;;;;;2.80;2.17;;;2.90;98.00;;;;;;5051751;28;20461;-65
2023/01/17 09:48:01;;;;;;;3.73;2.40;;;2.80;98.00;;;;;;5053362;28;20457;-67
2023/01/17 09:50:32;;;;;;;1.93;1.57;;;2.70;98.00;;;;;;5052938;28;20489;-67
2023/01/17 09:53:03;;;;;;;2.07;1.60;;;2.70;98.00;;;;;;5053231;28;20462;-67
2023/01/17 09:55:36;;;;;;;1.83;1.77;;;2.60;98.00;;;;;;5035348;28;20944;-67
2023/01/17 09:58:08;;;;;;;1.50;1.40;;;2.60;98.00;;;;;;5052582;28;20465;-67
2023/01/17 10:00:45;;;;;;;3.30;2.37;;;2.60;98.00;;;;;;5052713;28;20478;-67
2023/01/17 10:03:42;;;;;;;1.70;1.60;;;2.60;98.00;;;;;;5053209;28;20513;-67
2023/01/17 10:06:24;;;;;;;2.20;1.53;;;2.70;98.00;;;;;;5053207;28;20858;-67
2023/01/17 10:09:27;;;;;;;2.07;1.93;;;2.70;98.00;;;;;;5052958;28;20459;-67
2023/01/17 10:12:17;;;;;;;2.10;1.77;;;2.80;98.00;;;;;;5037359;28;20467;-67
2023/01/17 10:15:16;;;;;;;7.30;1.80;;;2.90;98.00;;;;;;5052410;28;20452;-67
2023/01/17 10:17:54;;;;;;;3.13;2.17;;;3.00;98.00;;;;;;5047003;28;20505;-67
2023/01/17 10:20:48;;;;;;;1.53;1.50;;;3.20;98.00;;;;;;5052538;28;20506;-67
2023/01/17 10:23:32;;;;;;;2.03;1.57;;;3.40;98.00;;;;;;5052487;28;20875;-67
2023/01/17 10:26:04;;;;;;;1.80;1.47;;;3.40;98.00;;;;;;5052569;28;20451;-67
2023/01/17 10:28:38;;;;;;;2.20;1.73;;;3.50;98.00;;;;;;5052265;28;20911;-66
2023/01/17 10:31:15;;;;;;;1.73;1.70;;;3.50;98.00;;;;;;5052347;28;20474;-66
2023/01/17 10:33:48;;;;;;;1.40;1.23;;;3.60;98.00;;;;;;5052147;28;20480;-66
2023/01/17 10:36:20;;;;;;;2.17;2.03;;;3.70;98.00;;;;;;5052238;28;20558;-67
2023/01/17 10:38:49;;;;;;;3.70;1.90;;;3.70;98.00;;;;;;5051973;28;20466;-67
2023/01/17 10:41:22;;;;;;;4.30;2.03;;;3.80;98.00;;;;;;5034334;28;20572;-67
2023/01/17 10:43:58;;;;;;;2.93;1.90;;;3.90;98.00;;;;;;5052100;28;20467;-67
2023/01/17 10:46:30;;;;;;;2.60;1.47;;;4.00;98.00;;;;;;5052157;28;20499;-66
2023/01/17 10:49:00;;;;;;;1.50;1.20;;;4.20;98.00;;;;;;5051345;28;20951;-69
2023/01/17 10:51:58;;;;;;;2.53;1.17;;;4.30;98.00;;;;;;5050281;28;20940;-67
2023/01/17 10:54:40;;;;;;;1.37;1.13;;;4.50;98.00;;;;;;5043213;28;20477;-68
2023/01/17 10:57:15;;;;;;;1.10;0.90;;;4.60;98.00;;;;;;5050968;28;21119;-67
2023/01/17 10:59:42;;;;;;;2.53;1.10;;;4.70;98.00;;;;;;5051295;28;20462;-68
2023/01/17 11:02:23;;;;;;;1.10;1.10;;;4.80;98.00;;;;;;5051948;28;20522;-68
2023/01/17 11:04:53;;;;;;;1.20;1.10;;;4.90;98.00;;;;;;5052015;28;20559;-68
2023/01/17 11:07:22;;;;;;;1.20;1.10;;;5.00;98.00;;;;;;5051985;28;20952;-68
2023/01/17 11:09:52;;;;;;;1.10;1.00;;;5.10;98.00;;;;;;5051537;28;20547;-68
2023/01/17 11:12:27;;;;;;;1.20;1.00;;;5.30;98.00;;;;;;5051335;28;20457;-68
2023/01/17 11:15:18;;;;;;;1.43;1.17;;;5.40;98.00;;;;;;5051175;28;20478;-68
2023/01/17 11:17:51;;;;;;;1.30;1.13;;;5.60;98.00;;;;;;5051317;28;20516;-68
2023/01/17 11:20:24;;;;;;;1.20;1.10;;;5.70;98.00;;;;;;5051034;28;20602;-68
2023/01/17 11:23:06;;;;;;;1.13;1.00;;;5.80;98.00;;;;;;5051422;28;20536;-68
2023/01/17 11:25:38;;;;;;;1.50;1.10;;;5.90;98.00;;;;;;5051307;28;20471;-68
2023/01/17 11:28:17;;;;;;;2.47;1.13;;;6.00;98.00;;;;;;5033347;28;20971;-68
2023/01/17 11:30:53;;;;;;;1.40;1.10;;;6.20;98.00;;;;;;5051457;28;20464;-67
2023/01/17 11:33:46;;;;;;;1.10;1.00;;;6.30;98.00;;;;;;5051026;28;21180;-67
2023/01/17 11:36:20;;;;;;;2.20;1.37;;;6.40;98.00;;;;;;5051504;28;20794;-67
2023/01/17 11:38:58;;;;;;;1.20;1.00;;;6.50;98.00;;;;;;5051172;28;20480;-67
2023/01/17 11:41:27;;;;;;;2.17;1.13;;;6.60;98.00;;;;;;5051372;28;20458;-68
2023/01/17 11:43:58;;;;;;;1.37;1.20;;;6.70;98.00;;;;;;5051212;28;20450;-68
2023/01/17 11:46:28;;;;;;;1.20;1.10;;;6.80;98.00;;;;;;5051295;28;20457;-68
2023/01/17 11:48:58;;;;;;;2.70;1.60;;;6.90;98.00;;;;;;5051308;28;20457;-68
2023/01/17 11:51:28;;;;;;;1.73;1.17;;;7.10;98.00;;;;;;5051326;28;20454;-67
2023/01/17 11:54:15;;;;;;;1.47;1.13;;;7.30;98.00;;;;;;5051301;28;20465;-68
2023/01/17 11:56:45;;;;;;;2.17;1.43;;;7.40;98.00;;;;;;5051222;28;21013;-68
2023/01/17 11:59:23;;;;;;;1.50;1.13;;;7.30;98.00;;;;;;5051321;28;20457;-67
2023/01/17 12:01:59;;;;;;;1.50;1.10;;;7.30;98.00;;;;;;5051258;28;20469;-67
2023/01/17 12:04:30;;;;;;;2.17;1.30;;;7.50;98.00;;;;;;5051338;28;20484;-67
2023/01/17 12:07:22;;;;;;;1.40;1.10;;;7.80;98.00;;;;;;5051533;28;21088;-68
2023/01/17 12:10:06;;;;;;;1.43;1.07;;;7.80;97.80;;;;;;5051091;28;20454;-68
2023/01/17 12:15:39;;;;;;;1.40;1.10;;;7.80;97.00;;;;;;5050608;28;20468;-68
2023/01/17 12:18:32;;;;;;;1.20;1.10;;;7.60;97.30;;;;;;5050863;28;20512;-68
2023/01/17 12:21:21;;;;;;;1.70;1.30;;;7.30;97.50;;;;;;5051952;28;20460;-68
2023/01/17 12:24:18;;;;;;;1.10;1.00;;;7.20;98.00;;;;;;5039649;28;20929;-68
2023/01/17 12:26:57;;;;;;;1.30;1.20;;;7.20;98.00;;;;;;5054467;28;20539;-67
2023/01/17 12:29:49;;;;;;;1.10;1.00;;;7.20;98.00;;;;;;5054475;28;20453;-68
2023/01/17 12:32:49;;;;;;;1.10;0.90;;;7.40;98.00;;;;;;5040338;28;20980;-68
2023/01/17 12:35:21;;;;;;;1.27;1.10;;;7.60;98.00;;;;;;5051895;28;20574;-68
2023/01/17 12:37:50;;;;;;;1.10;1.00;;;7.70;97.70;;;;;;5054140;28;20488;-67
2023/01/17 12:40:23;;;;;;;1.20;1.00;;;7.80;98.00;;;;;;5053926;28;20480;-68
2023/01/17 12:42:56;;;;;;;1.93;1.30;;;7.60;96.40;;;;;;5054352;28;20455;-68
2023/01/17 12:45:30;;;;;;;1.40;1.40;;;7.60;97.80;;;;;;5054387;28;20458;-68
2023/01/17 12:48:04;;;;;;;1.83;1.23;;;7.60;98.00;;;;;;5054440;28;20460;-67
2023/01/17 12:50:37;;;;;;;1.40;1.10;;;7.40;98.00;;;;;;5054102;28;20500;-68
2023/01/17 12:53:15;;;;;;;1.20;1.10;;;7.30;98.00;;;;;;5054472;28;20452;-67
2023/01/17 12:55:52;;;;;;;1.10;1.00;;;7.10;98.00;;;;;;5054349;28;20470;-68
2023/01/17 12:58:22;;;;;;;2.07;1.43;;;7.00;98.00;;;;;;5054064;28;20486;-67
2023/01/17 13:00:58;;;;;;;1.37;1.07;;;6.80;98.00;;;;;;5053967;28;21025;-67
2023/01/17 13:03:33;;;;;;;1.30;1.10;;;6.90;98.00;;;;;;5053659;28;20515;-67
2023/01/17 13:06:04;;;;;;;1.20;1.10;;;6.90;98.00;;;;;;5053455;28;20459;-68
2023/01/17 13:08:40;;;;;;;1.10;1.00;;;7.00;98.00;;;;;;5053186;28;20467;-68
2023/01/17 13:11:17;;;;;;;1.10;1.00;;;6.90;98.00;;;;;;5053510;28;20466;-68
2023/01/17 13:13:46;;;;;;;1.20;1.00;;;6.90;98.00;;;;;;5053384;28;20463;-68
2023/01/17 13:16:17;;;;;;;1.10;1.00;;;6.90;98.00;;;;;;5053445;28;20458;-67
2023/01/17 13:18:47;;;;;;;1.20;1.03;;;6.90;98.00;;;;;;5052981;28;20494;-68
2023/01/17 13:21:30;;;;;;;1.50;1.50;;;6.80;98.00;;;;;;5052401;28;20450;-68
2023/01/17 13:24:15;;;;;;;1.30;1.13;;;6.90;98.00;;;;;;5052970;28;20468;-67
2023/01/17 13:26:53;;;;;;;1.20;1.00;;;6.80;98.00;;;;;;5036231;28;20466;-68
2023/01/17 13:29:31;;;;;;;1.20;1.00;;;6.80;98.00;;;;;;5036224;28;20460;-67
2023/01/17 13:32:09;;;;;;;2.07;1.60;;;6.80;98.00;;;;;;5052267;28;20465;-67
2023/01/17 13:35:07;;;;;;;1.40;1.27;;;6.60;98.00;;;;;;5052497;28;20468;-68
2023/01/17 13:37:53;;;;;;;2.87;1.50;;;6.50;98.00;;;;;;5052562;28;20481;-67
2023/01/17 13:40:33;;;;;;;2.30;1.67;;;6.30;98.00;;;;;;5052576;28;20527;-67
2023/01/17 13:43:02;;;;;;;6.23;2.07;;;6.40;98.00;;;;;;5035681;28;20484;-68
2023/01/17 13:45:33;;;;;;;1.70;1.30;;;6.30;98.00;;;;;;5052499;28;20463;-67
2023/01/17 13:48:25;;;;;;;1.10;1.00;;;6.20;98.00;;;;;;5052517;28;20995;-68
2023/01/17 13:50:55;;;;;;;1.20;1.13;;;6.10;98.00;;;;;;5037615;28;20511;-67
2023/01/17 13:53:57;;;;;;;2.03;1.30;;;6.10;98.00;;;;;;5052431;28;20499;-67
2023/01/17 13:56:29;;;;;;;1.30;1.20;;;6.00;98.00;;;;;;5052516;28;20552;-67
2023/01/17 13:59:27;;;;;;;4.83;1.40;;;6.00;98.00;;;;;;5052233;28;20496;-67
2023/01/17 14:01:55;;;;;;;2.57;1.20;;;6.00;98.00;;;;;;5046394;28;20819;-68
2023/01/17 14:05:10;;;;;;;2.83;1.90;;;5.90;98.00;;;;;;5052257;28;20467;-67
2023/01/17 14:07:45;;;;;;;1.90;1.60;;;5.90;98.00;;;;;;5036781;28;20542;-67
2023/01/17 14:10:32;;;;;;;2.17;1.70;;;5.80;98.00;;;;;;5052374;28;20464;-68
2023/01/17 14:13:00;;;;;;;1.63;1.37;;;5.80;98.00;;;;;;5052328;28;20460;-68
2023/01/17 14:15:29;;;;;;;4.70;1.60;;;5.80;98.00;;;;;;5052045;28;20464;-68
2023/01/17 14:17:59;;;;;;;2.17;1.80;;;5.80;98.00;;;;;;5051965;28;20767;-68
2023/01/17 14:20:56;;;;;;;5.03;1.90;;;5.90;98.00;;;;;;5052127;28;20450;-68
2023/01/17 14:23:33;;;;;;;1.83;1.67;;;5.80;98.00;;;;;;5051890;28;20454;-67
2023/01/17 14:26:25;;;;;;;2.33;1.67;;;5.60;98.00;;;;;;5051929;28;20467;-68
2023/01/17 14:28:53;;;;;;;2.60;1.57;;;5.70;98.00;;;;;;5051731;28;20460;-68
2023/01/17 14:31:22;;;;;;;1.50;1.40;;;5.70;98.00;;;;;;5034007;28;20456;-67
2023/01/17 14:33:51;;;;;;;5.10;1.90;;;5.60;98.00;;;;;;5051695;28;20539;-67
2023/01/17 14:36:28;;;;;;;2.60;1.43;;;5.50;98.00;;;;;;5051684;28;20521;-67
2023/01/17 14:38:56;;;;;;;2.00;1.40;;;5.50;98.00;;;;;;5051369;28;20500;-67
2023/01/17 14:41:27;;;;;;;9.33;1.70;;;5.40;98.00;;;;;;5051665;28;20461;-67
2023/01/17 14:43:55;;;;;;;1.60;1.50;;;5.40;98.00;;;;;;5051143;28;20511;-68
2023/01/17 14:46:26;;;;;;;1.70;1.60;;;5.50;98.00;;;;;;5033998;28;20859;-68
2023/01/17 14:48:59;;;;;;;1.40;1.20;;;5.50;98.00;;;;;;5051365;28;20474;-68
2023/01/17 14:51:27;;;;;;;2.70;1.73;;;5.40;98.00;;;;;;5051271;28;20872;-68